Time,TemperatureF,DewpointF,PressureIn,WindDirection,WindDirectionDegrees,WindSpeedMPH,WindSpeedGustMPH,Humidity,HourlyPrecipIn,Conditions,Clouds,dailyrainin,SoftwareType,DateUTC
2013-09-05 00:11:00,43.3,42.8,29.47,ENE,67,2.7,-999.0,98,-99.99,,,0.00,Acu-Link.com,2013-09-05 08:11:00,
2013-09-05 00:27:00,43.2,42.7,29.47,North,0,0.0,-999.0,98,-99.99,,,0.00,Acu-Link.com,2013-09-05 08:27:00,
2013-09-05 00:42:00,42.8,42.3,29.48,WNW,292,0.0,-999.0,98,-99.99,,,0.00,Acu-Link.com,2013-09-05 08:42:00,
2013-09-05 00:57:00,42.1,41.6,29.49,SE,135,0.0,-999.0,98,-99.99,,,0.00,Acu-Link.com,2013-09-05 08:57:00,
2013-09-05 01:13:00,41.9,41.4,29.50,North,0,4.7,-999.0,98,-99.99,,,0.00,Acu-Link.com,2013-09-05 09:13:00,
2013-09-05 01:28:00,45.0,44.5,29.53,WSW,247,7.3,-999.0,98,-99.99,,,0.00,Acu-Link.com,2013-09-05 09:28:00,
2013-09-05 01:43:00,45.7,44.6,29.55,WSW,247,5.3,-999.0,96,-99.99,,,0.00,Acu-Link.com,2013-09-05 09:43:00,
2013-09-05 01:58:00,46.2,45.1,29.56,WSW,247,6.3,-999.0,96,-99.99,,,0.00,Acu-Link.com,2013-09-05 09:58:00,
2013-09-05 02:13:00,46.4,45.6,29.57,West,270,5.8,-999.0,97,-99.99,,,0.00,Acu-Link.com,2013-09-05 10:13:00,
2013-09-05 02:29:00,46.6,45.8,29.58,WSW,247,5.3,-999.0,97,-99.99,,,0.00,Acu-Link.com,2013-09-05 10:29:00,
2013-09-05 02:44:00,46.6,46.1,29.59,WSW,247,4.7,-999.0,98,-99.99,,,0.00,Acu-Link.com,2013-09-05 10:44:00,
2013-09-05 02:59:00,46.6,46.1,29.60,SSW,202,3.7,-999.0,98,-99.99,,,0.00,Acu-Link.com,2013-09-05 10:59:00,
2013-09-05 03:14:00,46.6,46.1,29.61,South,180,3.7,-999.0,98,-99.99,,,0.00,Acu-Link.com,2013-09-05 11:14:00,
2013-09-05 03:29:00,46.4,45.9,29.62,SSW,202,4.7,-999.0,98,-99.99,,,0.00,Acu-Link.com,2013-09-05 11:29:00,
2013-09-05 03:45:00,46.4,45.9,29.62,SE,135,4.2,-999.0,98,-99.99,,,0.00,Acu-Link.com,2013-09-05 11:45:00,
2013-09-05 04:00:00,45.9,45.4,29.63,SSE,157,4.2,-999.0,98,-99.99,,,0.00,Acu-Link.com,2013-09-05 12:00:00,
2013-09-05 04:15:00,45.9,45.4,29.64,SSW,202,3.2,-999.0,98,-99.99,,,0.00,Acu-Link.com,2013-09-05 12:15:00,
2013-09-05 04:31:00,45.5,45.0,29.64,South,180,2.2,-999.0,98,-99.99,,,0.00,Acu-Link.com,2013-09-05 12:31:00,
2013-09-05 04:46:00,45.1,44.6,29.65,SSE,157,2.2,-999.0,98,-99.99,,,0.00,Acu-Link.com,2013-09-05 12:46:00,
2013-09-05 05:01:00,44.1,43.6,29.65,SE,135,0.0,-999.0,98,-99.99,,,0.00,Acu-Link.com,2013-09-05 13:01:00,
2013-09-05 05:16:00,43.0,42.5,29.65,ESE,112,3.7,-999.0,98,-99.99,,,0.00,Acu-Link.com,2013-09-05 13:16:00,
2013-09-05 05:31:00,42.6,42.1,29.65,SSE,157,3.2,-999.0,98,-99.99,,,0.00,Acu-Link.com,2013-09-05 13:31:00,
2013-09-05 05:47:00,41.9,41.4,29.66,ESE,112,3.2,-999.0,98,-99.99,,,0.00,Acu-Link.com,2013-09-05 13:47:00,
2013-09-05 06:02:00,41.4,40.9,29.67,WSW,247,3.7,-999.0,98,-99.99,,,0.00,Acu-Link.com,2013-09-05 14:02:00,
2013-09-05 06:17:00,41.5,41.0,29.67,SSE,157,2.7,-999.0,98,-99.99,,,0.00,Acu-Link.com,2013-09-05 14:17:00,
2013-09-05 06:33:00,40.6,40.1,29.67,ESE,112,2.2,-999.0,98,-99.99,,,0.00,Acu-Link.com,2013-09-05 14:33:00,
2013-09-05 06:48:00,39.7,39.2,29.67,ESE,112,2.2,-999.0,98,-99.99,,,0.00,Acu-Link.com,2013-09-05 14:48:00,
2013-09-05 07:03:00,40.3,39.8,29.68,ESE,112,2.2,-999.0,98,-99.99,,,0.00,Acu-Link.com,2013-09-05 15:03:00,
2013-09-05 07:18:00,39.9,39.4,29.68,ESE,112,3.2,-999.0,98,-99.99,,,0.00,Acu-Link.com,2013-09-05 15:18:00,
2013-09-05 07:33:00,40.3,39.8,29.69,ESE,112,3.7,-999.0,98,-99.99,,,0.00,Acu-Link.com,2013-09-05 15:33:00,
2013-09-05 07:49:00,40.8,40.3,29.69,ESE,112,0.0,-999.0,98,-99.99,,,0.00,Acu-Link.com,2013-09-05 15:49:00,
2013-09-05 08:04:00,42.4,41.9,29.68,South,180,0.0,-999.0,98,-99.99,,,0.00,Acu-Link.com,2013-09-05 16:04:00,
2013-09-05 08:19:00,44.2,43.7,29.67,ESE,112,2.7,-999.0,98,-99.99,,,0.00,Acu-Link.com,2013-09-05 16:19:00,
2013-09-05 08:34:00,47.3,45.4,29.67,ESE,112,2.7,-999.0,93,-99.99,,,0.00,Acu-Link.com,2013-09-05 16:34:00,
2013-09-05 08:49:00,49.5,46.7,29.68,East,90,4.2,-999.0,90,-99.99,,,0.00,Acu-Link.com,2013-09-05 16:49:00,
2013-09-05 09:05:00,49.5,46.1,29.65,ESE,112,3.7,-999.0,88,-99.99,,,0.00,Acu-Link.com,2013-09-05 17:05:00,
2013-09-05 09:20:00,49.6,46.8,29.67,SE,135,2.2,-999.0,90,-99.99,,,0.00,Acu-Link.com,2013-09-05 17:20:00,
2013-09-05 09:36:00,50.4,47.0,29.67,ESE,112,3.7,-999.0,88,-99.99,,,0.00,Acu-Link.com,2013-09-05 17:36:00,
2013-09-05 09:51:00,51.8,47.4,29.65,SE,135,4.2,-999.0,85,-99.99,,,0.00,Acu-Link.com,2013-09-05 17:51:00,
2013-09-05 10:06:00,51.6,46.6,29.64,ESE,112,5.3,-999.0,83,-99.99,,,0.00,Acu-Link.com,2013-09-05 18:06:00,
2013-09-05 10:22:00,52.7,47.4,29.64,ESE,112,5.3,-999.0,82,-99.99,,,0.00,Acu-Link.com,2013-09-05 18:22:00,
2013-09-05 10:37:00,51.8,46.5,29.65,NNW,337,5.3,-999.0,82,-99.99,,,0.00,Acu-Link.com,2013-09-05 18:37:00,
2013-09-05 10:52:00,51.4,46.4,29.65,ESE,112,2.7,-999.0,83,-99.99,,,0.00,Acu-Link.com,2013-09-05 18:52:00,
2013-09-05 11:07:00,53.2,47.5,29.65,NE,45,5.8,-999.0,81,-99.99,,,0.00,Acu-Link.com,2013-09-05 19:07:00,
2013-09-05 11:22:00,54.9,47.8,29.63,NE,45,3.2,-999.0,77,-99.99,,,0.00,Acu-Link.com,2013-09-05 19:22:00,
2013-09-05 11:38:00,55.9,48.1,29.63,East,90,3.7,-999.0,75,-99.99,,,0.00,Acu-Link.com,2013-09-05 19:38:00,
2013-09-05 11:53:00,57.4,48.1,29.63,NE,45,5.3,-999.0,71,-99.99,,,0.00,Acu-Link.com,2013-09-05 19:53:00,
2013-09-05 12:08:00,59.5,48.9,29.64,ESE,112,4.2,-999.0,68,-99.99,,,0.00,Acu-Link.com,2013-09-05 20:08:00,
2013-09-05 12:24:00,60.6,47.9,29.63,ESE,112,4.2,-999.0,63,-99.99,,,0.00,Acu-Link.com,2013-09-05 20:24:00,
2013-09-05 12:39:00,58.8,46.2,29.65,North,0,3.2,-999.0,63,-99.99,,,0.00,Acu-Link.com,2013-09-05 20:39:00,
2013-09-05 12:54:00,58.5,45.5,29.66,ESE,112,5.8,-999.0,62,-99.99,,,0.00,Acu-Link.com,2013-09-05 20:54:00,
2013-09-05 13:09:00,58.6,46.0,29.67,SSE,157,5.8,-999.0,63,-99.99,,,0.00,Acu-Link.com,2013-09-05 21:09:00,
2013-09-05 13:24:00,58.8,47.5,29.68,ESE,112,3.2,-999.0,66,-99.99,,,0.00,Acu-Link.com,2013-09-05 21:24:00,
2013-09-05 13:40:00,59.2,47.4,29.68,SSE,157,10.4,-999.0,65,-99.99,,,0.00,Acu-Link.com,2013-09-05 21:40:00,
2013-09-05 13:55:00,59.2,47.0,29.68,South,180,7.8,-999.0,64,-99.99,,,0.00,Acu-Link.com,2013-09-05 21:55:00,
2013-09-05 14:10:00,59.5,47.3,29.68,SSE,157,9.4,-999.0,64,-99.99,,,0.00,Acu-Link.com,2013-09-05 22:10:00,
2013-09-05 14:25:00,60.6,47.1,29.68,ESE,112,6.8,-999.0,61,-99.99,,,0.00,Acu-Link.com,2013-09-05 22:25:00,
2013-09-05 14:41:00,61.2,46.8,29.69,South,180,3.7,-999.0,59,-99.99,,,0.00,Acu-Link.com,2013-09-05 22:41:00,
2013-09-05 14:56:00,61.0,47.0,29.69,SE,135,4.2,-999.0,60,-99.99,,,0.00,Acu-Link.com,2013-09-05 22:56:00,
2013-09-05 15:11:00,60.1,46.6,29.70,South,180,2.2,-999.0,61,-99.99,,,0.00,Acu-Link.com,2013-09-05 23:11:00,
2013-09-05 15:26:00,59.7,47.5,29.70,SW,225,4.7,-999.0,64,-99.99,,,0.00,Acu-Link.com,2013-09-05 23:26:00,
2013-09-05 15:41:00,61.9,47.4,29.69,SSE,157,3.2,-999.0,59,-99.99,,,0.00,Acu-Link.com,2013-09-05 23:41:00,
2013-09-05 15:57:00,61.3,47.7,29.70,South,180,3.2,-999.0,61,-99.99,,,0.00,Acu-Link.com,2013-09-05 23:57:00,
2013-09-05 16:12:00,61.3,47.7,29.70,West,270,1.1,-999.0,61,-99.99,,,0.00,Acu-Link.com,2013-09-06 00:12:00,
2013-09-05 16:27:00,61.0,47.9,29.70,South,180,0.0,-999.0,62,-99.99,,,0.00,Acu-Link.com,2013-09-06 00:27:00,
2013-09-05 16:42:00,61.9,47.0,29.70,East,90,2.7,-999.0,58,-99.99,,,0.00,Acu-Link.com,2013-09-06 00:42:00,
2013-09-05 16:58:00,61.9,47.4,29.70,SSE,157,3.7,-999.0,59,-99.99,,,0.00,Acu-Link.com,2013-09-06 00:58:00,
2013-09-05 17:13:00,61.3,46.8,29.70,SSE,157,3.2,-999.0,59,-99.99,,,0.00,Acu-Link.com,2013-09-06 01:13:00,
2013-09-05 17:28:00,61.0,47.5,29.70,South,180,3.2,-999.0,61,-99.99,,,0.00,Acu-Link.com,2013-09-06 01:28:00,
2013-09-05 17:43:00,60.8,47.7,29.70,SSW,202,3.7,-999.0,62,-99.99,,,0.00,Acu-Link.com,2013-09-06 01:43:00,
2013-09-05 17:59:00,60.8,48.5,29.70,SSW,202,4.2,-999.0,64,-99.99,,,0.00,Acu-Link.com,2013-09-06 01:59:00,
2013-09-05 18:14:00,61.7,47.2,29.71,SSW,202,2.7,-999.0,59,-99.99,,,0.00,Acu-Link.com,2013-09-06 02:14:00,
2013-09-05 18:29:00,61.2,47.6,29.71,SSE,157,2.7,-999.0,61,-99.99,,,0.00,Acu-Link.com,2013-09-06 02:29:00,
2013-09-05 18:44:00,61.3,48.6,29.70,SSW,202,2.7,-999.0,63,-99.99,,,0.00,Acu-Link.com,2013-09-06 02:44:00,
2013-09-05 19:00:00,59.9,47.3,29.71,SSW,202,2.7,-999.0,63,-99.99,,,0.00,Acu-Link.com,2013-09-06 03:00:00,
2013-09-05 19:15:00,59.0,47.7,29.72,South,180,2.7,-999.0,66,-99.99,,,0.00,Acu-Link.com,2013-09-06 03:15:00,
2013-09-05 19:30:00,57.7,48.4,29.72,South,180,2.2,-999.0,71,-99.99,,,0.00,Acu-Link.com,2013-09-06 03:30:00,
2013-09-05 19:46:00,56.1,46.8,29.72,SSW,202,2.2,-999.0,71,-99.99,,,0.00,Acu-Link.com,2013-09-06 03:46:00,
2013-09-05 20:01:00,56.8,51.0,29.73,ESE,112,0.0,-999.0,81,-99.99,,,0.00,Acu-Link.com,2013-09-06 04:01:00,
2013-09-05 20:16:00,55.4,49.0,29.74,SSE,157,3.2,-999.0,79,-99.99,,,0.00,Acu-Link.com,2013-09-06 04:16:00,
2013-09-05 20:31:00,55.8,48.0,29.75,South,180,4.7,-999.0,75,-99.99,,,0.00,Acu-Link.com,2013-09-06 04:31:00,
2013-09-05 20:46:00,55.4,48.0,29.76,West,270,2.2,-999.0,76,-99.99,,,0.00,Acu-Link.com,2013-09-06 04:46:00,
2013-09-05 21:01:00,54.1,47.7,29.76,SSW,202,5.3,-999.0,79,-99.99,,,0.00,Acu-Link.com,2013-09-06 05:01:00,
2013-09-05 21:17:00,56.7,42.5,29.76,SW,225,5.3,-999.0,59,-99.99,,,0.00,Acu-Link.com,2013-09-06 05:17:00,
2013-09-05 21:32:00,55.9,42.2,29.76,SSW,202,3.7,-999.0,60,-99.99,,,0.00,Acu-Link.com,2013-09-06 05:32:00,
2013-09-05 21:47:00,54.1,43.8,29.77,SSE,157,2.2,-999.0,68,-99.99,,,0.00,Acu-Link.com,2013-09-06 05:47:00,
2013-09-05 22:02:00,53.8,43.9,29.77,NNW,337,2.7,-999.0,69,-99.99,,,0.00,Acu-Link.com,2013-09-06 06:02:00,
2013-09-05 22:18:00,52.2,43.1,29.77,WSW,247,0.0,-999.0,71,-99.99,,,0.00,Acu-Link.com,2013-09-06 06:18:00,
2013-09-05 22:33:00,50.9,43.3,29.77,South,180,1.1,-999.0,75,-99.99,,,0.00,Acu-Link.com,2013-09-06 06:33:00,
2013-09-05 22:48:00,49.3,43.4,29.78,ENE,67,2.2,-999.0,80,-99.99,,,0.00,Acu-Link.com,2013-09-06 06:48:00,
2013-09-05 23:03:00,47.8,42.6,29.77,NE,45,0.0,-999.0,82,-99.99,,,0.00,Acu-Link.com,2013-09-06 07:03:00,
2013-09-05 23:19:00,46.4,43.0,29.78,SSE,157,2.2,-999.0,88,-99.99,,,0.00,Acu-Link.com,2013-09-06 07:19:00,
2013-09-05 23:34:00,45.1,42.3,29.79,ESE,112,3.2,-999.0,90,-99.99,,,0.00,Acu-Link.com,2013-09-06 07:34:00,
2013-09-05 23:49:00,45.5,43.0,29.80,SSE,157,2.7,-999.0,91,-99.99,,,0.00,Acu-Link.com,2013-09-06 07:49:00,